sensor_id;sensor_type;location;lat;lon;timestamp;temperature;humidity
40289;DHT22;28991;52.028;5.526;2023-08-30T00:00:20;23.50;57.00
40289;DHT22;28991;52.028;5.526;2023-08-30T00:02:48;23.50;57.00
40289;DHT22;28991;52.028;5.526;2023-08-30T00:05:14;23.50;57.00
40289;DHT22;28991;52.028;5.526;2023-08-30T00:07:39;23.50;57.00
40289;DHT22;28991;52.028;5.526;2023-08-30T00:10:07;23.50;57.10
40289;DHT22;28991;52.028;5.526;2023-08-30T00:12:33;23.50;57.00
40289;DHT22;28991;52.028;5.526;2023-08-30T00:14:59;23.50;57.00
40289;DHT22;28991;52.028;5.526;2023-08-30T00:17:25;23.50;57.10
40289;DHT22;28991;52.028;5.526;2023-08-30T00:19:50;23.50;57.10
40289;DHT22;28991;52.028;5.526;2023-08-30T00:22:18;23.50;57.10
40289;DHT22;28991;52.028;5.526;2023-08-30T00:24:44;23.50;57.10
40289;DHT22;28991;52.028;5.526;2023-08-30T00:27:10;23.50;57.10
40289;DHT22;28991;52.028;5.526;2023-08-30T00:29:36;23.50;57.10
40289;DHT22;28991;52.028;5.526;2023-08-30T00:32:01;23.50;57.10
40289;DHT22;28991;52.028;5.526;2023-08-30T00:34:27;23.50;57.10
40289;DHT22;28991;52.028;5.526;2023-08-30T00:36:53;23.50;57.20
40289;DHT22;28991;52.028;5.526;2023-08-30T00:39:18;23.40;57.10
40289;DHT22;28991;52.028;5.526;2023-08-30T00:41:44;23.50;57.20
40289;DHT22;28991;52.028;5.526;2023-08-30T00:44:10;23.40;57.10
40289;DHT22;28991;52.028;5.526;2023-08-30T00:46:36;23.50;57.10
40289;DHT22;28991;52.028;5.526;2023-08-30T00:49:02;23.50;57.20
40289;DHT22;28991;52.028;5.526;2023-08-30T00:51:28;23.50;57.20
40289;DHT22;28991;52.028;5.526;2023-08-30T00:53:54;23.40;57.20
40289;DHT22;28991;52.028;5.526;2023-08-30T00:56:21;23.50;57.20
40289;DHT22;28991;52.028;5.526;2023-08-30T00:58:50;23.50;57.20
40289;DHT22;28991;52.028;5.526;2023-08-30T01:01:16;23.50;57.20
40289;DHT22;28991;52.028;5.526;2023-08-30T01:03:42;23.50;57.20
40289;DHT22;28991;52.028;5.526;2023-08-30T01:06:08;23.50;57.30
40289;DHT22;28991;52.028;5.526;2023-08-30T01:08:35;23.50;57.30
40289;DHT22;28991;52.028;5.526;2023-08-30T01:11:19;23.60;57.30
40289;DHT22;28991;52.028;5.526;2023-08-30T01:14:00;23.40;57.30
40289;DHT22;28991;52.028;5.526;2023-08-30T01:16:30;23.50;57.30
40289;DHT22;28991;52.028;5.526;2023-08-30T01:18:58;23.40;57.20
40289;DHT22;28991;52.028;5.526;2023-08-30T01:21:46;23.40;57.20
40289;DHT22;28991;52.028;5.526;2023-08-30T01:24:23;23.50;57.30
40289;DHT22;28991;52.028;5.526;2023-08-30T01:29:32;23.50;57.30
40289;DHT22;28991;52.028;5.526;2023-08-30T01:31:59;23.40;57.30
40289;DHT22;28991;52.028;5.526;2023-08-30T01:34:25;23.40;57.30
40289;DHT22;28991;52.028;5.526;2023-08-30T01:36:51;23.40;57.30
40289;DHT22;28991;52.028;5.526;2023-08-30T01:39:17;23.40;57.30
40289;DHT22;28991;52.028;5.526;2023-08-30T01:41:43;23.50;57.40
40289;DHT22;28991;52.028;5.526;2023-08-30T01:44:10;23.50;57.30
40289;DHT22;28991;52.028;5.526;2023-08-30T01:46:37;23.40;57.30
40289;DHT22;28991;52.028;5.526;2023-08-30T01:49:04;23.40;57.30
40289;DHT22;28991;52.028;5.526;2023-08-30T01:51:32;23.40;57.30
40289;DHT22;28991;52.028;5.526;2023-08-30T01:53:58;23.30;57.20
40289;DHT22;28991;52.028;5.526;2023-08-30T01:56:24;23.40;57.30
40289;DHT22;28991;52.028;5.526;2023-08-30T01:58:49;23.30;57.30
40289;DHT22;28991;52.028;5.526;2023-08-30T02:01:15;23.40;57.40
40289;DHT22;28991;52.028;5.526;2023-08-30T02:03:43;23.40;57.30
40289;DHT22;28991;52.028;5.526;2023-08-30T02:06:31;23.40;57.30
40289;DHT22;28991;52.028;5.526;2023-08-30T02:09:07;23.40;57.40
40289;DHT22;28991;52.028;5.526;2023-08-30T02:11:34;23.40;57.40
40289;DHT22;28991;52.028;5.526;2023-08-30T02:14:01;23.40;57.30
40289;DHT22;28991;52.028;5.526;2023-08-30T02:16:28;23.40;57.30
40289;DHT22;28991;52.028;5.526;2023-08-30T02:18:55;23.60;57.50
40289;DHT22;28991;52.028;5.526;2023-08-30T02:21:21;23.40;57.40
40289;DHT22;28991;52.028;5.526;2023-08-30T02:23:51;23.40;57.40
40289;DHT22;28991;52.028;5.526;2023-08-30T02:26:19;23.40;57.40
40289;DHT22;28991;52.028;5.526;2023-08-30T02:28:45;23.40;57.30
40289;DHT22;28991;52.028;5.526;2023-08-30T02:31:10;23.40;57.40
40289;DHT22;28991;52.028;5.526;2023-08-30T02:33:36;23.40;57.40
40289;DHT22;28991;52.028;5.526;2023-08-30T02:36:03;23.40;57.40
40289;DHT22;28991;52.028;5.526;2023-08-30T02:38:29;23.40;57.40
40289;DHT22;28991;52.028;5.526;2023-08-30T02:40:54;23.40;57.40
40289;DHT22;28991;52.028;5.526;2023-08-30T02:43:20;23.40;57.40
40289;DHT22;28991;52.028;5.526;2023-08-30T02:45:45;23.40;57.40
40289;DHT22;28991;52.028;5.526;2023-08-30T02:48:11;23.60;57.50
40289;DHT22;28991;52.028;5.526;2023-08-30T02:50:36;23.40;58.00
40289;DHT22;28991;52.028;5.526;2023-08-30T02:53:02;23.40;57.40
40289;DHT22;28991;52.028;5.526;2023-08-30T02:55:30;23.40;57.40
40289;DHT22;28991;52.028;5.526;2023-08-30T02:57:56;23.40;57.40
40289;DHT22;28991;52.028;5.526;2023-08-30T03:00:21;23.40;57.40
40289;DHT22;28991;52.028;5.526;2023-08-30T03:02:47;23.30;57.40
40289;DHT22;28991;52.028;5.526;2023-08-30T03:05:14;23.30;57.40
40289;DHT22;28991;52.028;5.526;2023-08-30T03:07:39;23.30;57.40
40289;DHT22;28991;52.028;5.526;2023-08-30T03:10:06;23.40;57.40
40289;DHT22;28991;52.028;5.526;2023-08-30T03:12:31;23.30;57.40
40289;DHT22;28991;52.028;5.526;2023-08-30T03:14:58;23.40;57.40
40289;DHT22;28991;52.028;5.526;2023-08-30T03:17:23;23.40;57.40
40289;DHT22;28991;52.028;5.526;2023-08-30T03:19:51;23.40;57.40
40289;DHT22;28991;52.028;5.526;2023-08-30T03:22:18;23.40;57.50
40289;DHT22;28991;52.028;5.526;2023-08-30T03:24:44;23.40;57.50
40289;DHT22;28991;52.028;5.526;2023-08-30T03:27:09;23.30;57.40
40289;DHT22;28991;52.028;5.526;2023-08-30T03:29:35;23.40;57.50
40289;DHT22;28991;52.028;5.526;2023-08-30T03:32:01;23.30;57.40
40289;DHT22;28991;52.028;5.526;2023-08-30T03:34:26;23.30;57.40
40289;DHT22;28991;52.028;5.526;2023-08-30T03:36:52;23.30;57.40
40289;DHT22;28991;52.028;5.526;2023-08-30T03:39:20;23.40;57.50
40289;DHT22;28991;52.028;5.526;2023-08-30T03:41:46;23.30;57.40
40289;DHT22;28991;52.028;5.526;2023-08-30T03:44:11;23.30;57.40
40289;DHT22;28991;52.028;5.526;2023-08-30T03:46:37;23.40;57.50
40289;DHT22;28991;52.028;5.526;2023-08-30T03:49:03;23.30;57.40
40289;DHT22;28991;52.028;5.526;2023-08-30T03:51:29;23.40;57.50
40289;DHT22;28991;52.028;5.526;2023-08-30T03:53:54;23.40;57.50
40289;DHT22;28991;52.028;5.526;2023-08-30T03:56:22;23.40;57.50
40289;DHT22;28991;52.028;5.526;2023-08-30T03:58:48;23.40;57.50
40289;DHT22;28991;52.028;5.526;2023-08-30T04:01:13;23.30;57.40
40289;DHT22;28991;52.028;5.526;2023-08-30T04:03:39;23.30;57.40
40289;DHT22;28991;52.028;5.526;2023-08-30T04:06:05;23.30;57.50
40289;DHT22;28991;52.028;5.526;2023-08-30T04:08:31;23.30;57.50
40289;DHT22;28991;52.028;5.526;2023-08-30T04:10:56;23.30;57.50
40289;DHT22;28991;52.028;5.526;2023-08-30T04:13:22;23.30;57.40
40289;DHT22;28991;52.028;5.526;2023-08-30T04:15:48;23.30;57.50
40289;DHT22;28991;52.028;5.526;2023-08-30T04:18:13;23.40;57.50
40289;DHT22;28991;52.028;5.526;2023-08-30T04:20:44;23.30;57.50
40289;DHT22;28991;52.028;5.526;2023-08-30T04:23:09;23.30;57.50
40289;DHT22;28991;52.028;5.526;2023-08-30T04:25:36;23.30;57.40
40289;DHT22;28991;52.028;5.526;2023-08-30T04:28:02;23.30;57.50
40289;DHT22;28991;52.028;5.526;2023-08-30T04:30:28;23.30;57.50
40289;DHT22;28991;52.028;5.526;2023-08-30T04:32:53;23.30;57.50
40289;DHT22;28991;52.028;5.526;2023-08-30T04:35:19;23.30;57.50
40289;DHT22;28991;52.028;5.526;2023-08-30T04:37:44;23.30;57.50
40289;DHT22;28991;52.028;5.526;2023-08-30T04:40:10;23.30;57.50
40289;DHT22;28991;52.028;5.526;2023-08-30T04:42:36;23.30;57.50
40289;DHT22;28991;52.028;5.526;2023-08-30T04:45:03;23.30;57.50
40289;DHT22;28991;52.028;5.526;2023-08-30T04:47:30;23.30;57.50
40289;DHT22;28991;52.028;5.526;2023-08-30T04:49:56;23.30;57.50
40289;DHT22;28991;52.028;5.526;2023-08-30T04:52:21;23.30;57.50
40289;DHT22;28991;52.028;5.526;2023-08-30T04:54:47;23.30;57.50
40289;DHT22;28991;52.028;5.526;2023-08-30T04:57:14;23.30;57.50
40289;DHT22;28991;52.028;5.526;2023-08-30T04:59:41;23.20;58.00
40289;DHT22;28991;52.028;5.526;2023-08-30T05:02:07;23.30;57.50
40289;DHT22;28991;52.028;5.526;2023-08-30T05:04:33;23.30;57.50
40289;DHT22;28991;52.028;5.526;2023-08-30T05:06:59;23.30;57.50
40289;DHT22;28991;52.028;5.526;2023-08-30T05:09:24;23.20;53.60
40289;DHT22;28991;52.028;5.526;2023-08-30T05:11:51;22.80;50.80
40289;DHT22;28991;52.028;5.526;2023-08-30T05:14:17;22.30;50.90
40289;DHT22;28991;52.028;5.526;2023-08-30T05:16:42;21.80;51.40
40289;DHT22;28991;52.028;5.526;2023-08-30T05:19:08;21.40;52.60
40289;DHT22;28991;52.028;5.526;2023-08-30T05:21:33;21.20;53.60
40289;DHT22;28991;52.028;5.526;2023-08-30T05:23:59;20.70;54.20
40289;DHT22;28991;52.028;5.526;2023-08-30T05:26:24;20.60;54.60
40289;DHT22;28991;52.028;5.526;2023-08-30T05:28:50;20.60;55.00
40289;DHT22;28991;52.028;5.526;2023-08-30T05:31:16;20.60;55.40
40289;DHT22;28991;52.028;5.526;2023-08-30T05:33:41;20.70;55.30
40289;DHT22;28991;52.028;5.526;2023-08-30T05:36:07;21.00;55.70
40289;DHT22;28991;52.028;5.526;2023-08-30T05:38:32;21.00;55.10
40289;DHT22;28991;52.028;5.526;2023-08-30T05:40:58;21.00;54.70
40289;DHT22;28991;52.028;5.526;2023-08-30T05:43:23;21.20;54.30
40289;DHT22;28991;52.028;5.526;2023-08-30T05:45:49;21.70;54.30
40289;DHT22;28991;52.028;5.526;2023-08-30T05:48:14;21.50;53.80
40289;DHT22;28991;52.028;5.526;2023-08-30T05:50:40;21.60;53.60
40289;DHT22;28991;52.028;5.526;2023-08-30T05:53:06;21.70;53.40
40289;DHT22;28991;52.028;5.526;2023-08-30T05:55:31;21.90;53.20
40289;DHT22;28991;52.028;5.526;2023-08-30T05:57:57;22.00;53.10
40289;DHT22;28991;52.028;5.526;2023-08-30T06:00:23;22.20;53.60
40289;DHT22;28991;52.028;5.526;2023-08-30T06:02:49;22.20;52.80
40289;DHT22;28991;52.028;5.526;2023-08-30T06:05:16;22.30;52.80
40289;DHT22;28991;52.028;5.526;2023-08-30T06:07:42;22.40;52.60
40289;DHT22;28991;52.028;5.526;2023-08-30T06:10:08;22.50;52.50
40289;DHT22;28991;52.028;5.526;2023-08-30T06:12:33;22.60;52.40
40289;DHT22;28991;52.028;5.526;2023-08-30T06:14:59;22.60;52.40
40289;DHT22;28991;52.028;5.526;2023-08-30T06:17:24;22.70;52.40
40289;DHT22;28991;52.028;5.526;2023-08-30T06:19:50;22.70;52.40
40289;DHT22;28991;52.028;5.526;2023-08-30T06:22:16;22.80;52.40
40289;DHT22;28991;52.028;5.526;2023-08-30T06:24:41;22.70;52.30
40289;DHT22;28991;52.028;5.526;2023-08-30T06:27:07;22.80;52.30
40289;DHT22;28991;52.028;5.526;2023-08-30T06:29:33;22.80;52.30
40289;DHT22;28991;52.028;5.526;2023-08-30T06:31:58;22.80;52.20
40289;DHT22;28991;52.028;5.526;2023-08-30T06:34:24;22.70;52.00
40289;DHT22;28991;52.028;5.526;2023-08-30T06:36:50;22.70;52.20
40289;DHT22;28991;52.028;5.526;2023-08-30T06:39:18;22.70;52.20
40289;DHT22;28991;52.028;5.526;2023-08-30T06:41:44;22.70;52.30
40289;DHT22;28991;52.028;5.526;2023-08-30T06:44:09;22.70;52.40
40289;DHT22;28991;52.028;5.526;2023-08-30T06:46:35;22.70;52.40
40289;DHT22;28991;52.028;5.526;2023-08-30T06:49:03;22.70;52.60
40289;DHT22;28991;52.028;5.526;2023-08-30T06:51:28;22.70;52.90
40289;DHT22;28991;52.028;5.526;2023-08-30T06:53:54;22.70;53.00
40289;DHT22;28991;52.028;5.526;2023-08-30T06:56:20;22.70;53.10
40289;DHT22;28991;52.028;5.526;2023-08-30T06:58:46;22.70;53.20
40289;DHT22;28991;52.028;5.526;2023-08-30T07:01:12;22.70;53.20
40289;DHT22;28991;52.028;5.526;2023-08-30T07:03:37;22.70;53.50
40289;DHT22;28991;52.028;5.526;2023-08-30T07:06:05;22.70;53.80
40289;DHT22;28991;52.028;5.526;2023-08-30T07:08:31;22.70;54.00
40289;DHT22;28991;52.028;5.526;2023-08-30T07:10:57;22.70;54.20
40289;DHT22;28991;52.028;5.526;2023-08-30T07:13:23;22.60;54.50
40289;DHT22;28991;52.028;5.526;2023-08-30T07:15:49;22.80;54.80
40289;DHT22;28991;52.028;5.526;2023-08-30T07:18:14;22.60;54.90
40289;DHT22;28991;52.028;5.526;2023-08-30T07:20:40;22.50;55.10
40289;DHT22;28991;52.028;5.526;2023-08-30T07:23:05;22.30;55.10
40289;DHT22;28991;52.028;5.526;2023-08-30T07:25:31;22.90;55.60
40289;DHT22;28991;52.028;5.526;2023-08-30T07:27:59;22.50;55.50
40289;DHT22;28991;52.028;5.526;2023-08-30T07:30:25;22.50;55.80
40289;DHT22;28991;52.028;5.526;2023-08-30T07:32:50;22.50;56.10
40289;DHT22;28991;52.028;5.526;2023-08-30T07:35:16;22.50;56.10
40289;DHT22;28991;52.028;5.526;2023-08-30T07:37:42;22.50;56.50
40289;DHT22;28991;52.028;5.526;2023-08-30T07:40:08;22.50;56.50
40289;DHT22;28991;52.028;5.526;2023-08-30T07:42:34;22.50;56.70
40289;DHT22;28991;52.028;5.526;2023-08-30T07:44:59;22.40;56.90
40289;DHT22;28991;52.028;5.526;2023-08-30T07:47:25;22.30;57.00
40289;DHT22;28991;52.028;5.526;2023-08-30T07:49:50;22.30;57.40
40289;DHT22;28991;52.028;5.526;2023-08-30T07:52:16;22.20;57.60
40289;DHT22;28991;52.028;5.526;2023-08-30T07:54:42;22.10;57.80
40289;DHT22;28991;52.028;5.526;2023-08-30T07:57:07;22.00;57.80
40289;DHT22;28991;52.028;5.526;2023-08-30T07:59:35;22.00;57.80
40289;DHT22;28991;52.028;5.526;2023-08-30T08:02:01;22.00;58.30
40289;DHT22;28991;52.028;5.526;2023-08-30T08:04:27;22.00;58.40
40289;DHT22;28991;52.028;5.526;2023-08-30T08:06:52;22.40;58.70
40289;DHT22;28991;52.028;5.526;2023-08-30T08:09:18;22.10;58.40
40289;DHT22;28991;52.028;5.526;2023-08-30T08:11:43;22.00;58.40
40289;DHT22;28991;52.028;5.526;2023-08-30T08:14:10;22.00;58.50
40289;DHT22;28991;52.028;5.526;2023-08-30T08:16:36;21.90;58.60
40289;DHT22;28991;52.028;5.526;2023-08-30T08:19:02;21.80;58.40
40289;DHT22;28991;52.028;5.526;2023-08-30T08:21:28;21.80;58.90
40289;DHT22;28991;52.028;5.526;2023-08-30T08:23:53;21.70;59.00
40289;DHT22;28991;52.028;5.526;2023-08-30T08:26:19;21.70;59.60
40289;DHT22;28991;52.028;5.526;2023-08-30T08:28:45;21.70;59.50
40289;DHT22;28991;52.028;5.526;2023-08-30T08:31:10;21.70;59.60
40289;DHT22;28991;52.028;5.526;2023-08-30T08:33:36;21.70;59.60
40289;DHT22;28991;52.028;5.526;2023-08-30T08:36:02;21.70;59.60
40289;DHT22;28991;52.028;5.526;2023-08-30T08:38:27;21.60;59.40
40289;DHT22;28991;52.028;5.526;2023-08-30T08:41:05;21.70;59.80
40289;DHT22;28991;52.028;5.526;2023-08-30T08:43:32;21.70;59.60
40289;DHT22;28991;52.028;5.526;2023-08-30T08:46:00;21.70;60.00
40289;DHT22;28991;52.028;5.526;2023-08-30T08:48:29;21.60;60.00
40289;DHT22;28991;52.028;5.526;2023-08-30T08:50:57;21.60;60.50
40289;DHT22;28991;52.028;5.526;2023-08-30T08:53:22;21.60;60.70
40289;DHT22;28991;52.028;5.526;2023-08-30T08:55:48;21.60;60.90
40289;DHT22;28991;52.028;5.526;2023-08-30T08:58:15;21.70;60.90
40289;DHT22;28991;52.028;5.526;2023-08-30T09:00:42;21.70;60.90
40289;DHT22;28991;52.028;5.526;2023-08-30T09:03:08;21.70;60.90
40289;DHT22;28991;52.028;5.526;2023-08-30T09:05:37;22.00;61.10
40289;DHT22;28991;52.028;5.526;2023-08-30T09:08:05;21.80;60.70
40289;DHT22;28991;52.028;5.526;2023-08-30T09:10:34;21.90;60.80
40289;DHT22;28991;52.028;5.526;2023-08-30T09:13:01;22.00;60.80
40289;DHT22;28991;52.028;5.526;2023-08-30T09:15:33;22.10;60.30
40289;DHT22;28991;52.028;5.526;2023-08-30T09:17:59;22.20;60.00
40289;DHT22;28991;52.028;5.526;2023-08-30T09:20:25;22.20;59.90
40289;DHT22;28991;52.028;5.526;2023-08-30T09:22:51;22.20;60.20
40289;DHT22;28991;52.028;5.526;2023-08-30T09:25:25;22.20;59.90
40289;DHT22;28991;52.028;5.526;2023-08-30T09:27:51;22.20;60.00
40289;DHT22;28991;52.028;5.526;2023-08-30T09:30:23;22.20;60.10
40289;DHT22;28991;52.028;5.526;2023-08-30T09:32:49;22.30;60.40
40289;DHT22;28991;52.028;5.526;2023-08-30T09:35:14;22.30;60.00
40289;DHT22;28991;52.028;5.526;2023-08-30T09:37:40;22.40;60.30
40289;DHT22;28991;52.028;5.526;2023-08-30T09:40:06;22.40;60.50
40289;DHT22;28991;52.028;5.526;2023-08-30T09:42:32;22.40;60.70
40289;DHT22;28991;52.028;5.526;2023-08-30T09:44:57;22.40;60.80
40289;DHT22;28991;52.028;5.526;2023-08-30T09:47:27;22.30;60.70
40289;DHT22;28991;52.028;5.526;2023-08-30T09:49:55;22.30;61.00
40289;DHT22;28991;52.028;5.526;2023-08-30T09:52:23;22.20;61.10
40289;DHT22;28991;52.028;5.526;2023-08-30T09:54:49;22.20;61.40
40289;DHT22;28991;52.028;5.526;2023-08-30T09:57:16;22.10;61.50
40289;DHT22;28991;52.028;5.526;2023-08-30T09:59:42;22.10;62.20
40289;DHT22;28991;52.028;5.526;2023-08-30T10:02:09;22.10;61.70
40289;DHT22;28991;52.028;5.526;2023-08-30T10:04:38;22.10;62.10
40289;DHT22;28991;52.028;5.526;2023-08-30T10:07:07;22.10;62.10
40289;DHT22;28991;52.028;5.526;2023-08-30T10:09:33;22.10;62.30
40289;DHT22;28991;52.028;5.526;2023-08-30T10:11:59;22.10;62.20
40289;DHT22;28991;52.028;5.526;2023-08-30T10:14:27;22.00;62.10
40289;DHT22;28991;52.028;5.526;2023-08-30T10:17:03;22.20;62.00
40289;DHT22;28991;52.028;5.526;2023-08-30T10:19:29;22.20;61.90
40289;DHT22;28991;52.028;5.526;2023-08-30T10:22:06;22.30;61.80
40289;DHT22;28991;52.028;5.526;2023-08-30T10:25:02;22.40;61.60
40289;DHT22;28991;52.028;5.526;2023-08-30T10:27:31;22.40;61.90
40289;DHT22;28991;52.028;5.526;2023-08-30T10:30:02;22.50;62.10
40289;DHT22;28991;52.028;5.526;2023-08-30T10:32:29;22.60;62.20
40289;DHT22;28991;52.028;5.526;2023-08-30T10:34:55;22.70;61.90
40289;DHT22;28991;52.028;5.526;2023-08-30T10:37:26;22.70;62.00
40289;DHT22;28991;52.028;5.526;2023-08-30T10:39:52;22.70;62.30
40289;DHT22;28991;52.028;5.526;2023-08-30T10:42:22;22.70;62.30
40289;DHT22;28991;52.028;5.526;2023-08-30T10:44:57;22.80;62.30
40289;DHT22;28991;52.028;5.526;2023-08-30T10:47:30;22.80;62.50
40289;DHT22;28991;52.028;5.526;2023-08-30T10:50:00;22.90;62.40
40289;DHT22;28991;52.028;5.526;2023-08-30T10:52:27;22.90;62.40
40289;DHT22;28991;52.028;5.526;2023-08-30T10:55:03;22.90;62.40
40289;DHT22;28991;52.028;5.526;2023-08-30T10:57:29;22.90;62.10
40289;DHT22;28991;52.028;5.526;2023-08-30T11:00:09;23.00;62.30
40289;DHT22;28991;52.028;5.526;2023-08-30T11:02:37;23.00;62.20
40289;DHT22;28991;52.028;5.526;2023-08-30T11:05:04;23.00;62.20
40289;DHT22;28991;52.028;5.526;2023-08-30T11:07:30;23.00;62.10
40289;DHT22;28991;52.028;5.526;2023-08-30T11:09:57;23.00;62.00
40289;DHT22;28991;52.028;5.526;2023-08-30T11:12:22;23.10;61.80
40289;DHT22;28991;52.028;5.526;2023-08-30T11:14:49;23.10;61.70
40289;DHT22;28991;52.028;5.526;2023-08-30T11:17:19;23.10;61.70
40289;DHT22;28991;52.028;5.526;2023-08-30T11:19:45;23.20;61.50
40289;DHT22;28991;52.028;5.526;2023-08-30T11:22:12;23.20;61.50
40289;DHT22;28991;52.028;5.526;2023-08-30T11:24:38;23.20;61.30
40289;DHT22;28991;52.028;5.526;2023-08-30T11:27:04;23.20;61.00
40289;DHT22;28991;52.028;5.526;2023-08-30T11:29:30;23.20;60.80
40289;DHT22;28991;52.028;5.526;2023-08-30T11:31:56;23.20;60.70
40289;DHT22;28991;52.028;5.526;2023-08-30T11:34:21;23.20;60.50
40289;DHT22;28991;52.028;5.526;2023-08-30T11:36:48;23.20;60.00
40289;DHT22;28991;52.028;5.526;2023-08-30T11:39:18;23.20;59.50
40289;DHT22;28991;52.028;5.526;2023-08-30T11:41:44;23.20;59.00
40289;DHT22;28991;52.028;5.526;2023-08-30T11:44:10;23.10;58.60
40289;DHT22;28991;52.028;5.526;2023-08-30T11:46:36;23.10;58.60
40289;DHT22;28991;52.028;5.526;2023-08-30T11:49:01;23.00;58.80
40289;DHT22;28991;52.028;5.526;2023-08-30T11:51:28;23.00;58.50
40289;DHT22;28991;52.028;5.526;2023-08-30T11:53:55;23.00;58.50
40289;DHT22;28991;52.028;5.526;2023-08-30T11:56:21;22.90;58.40
40289;DHT22;28991;52.028;5.526;2023-08-30T11:58:48;22.90;58.40
40289;DHT22;28991;52.028;5.526;2023-08-30T12:01:14;23.00;58.50
40289;DHT22;28991;52.028;5.526;2023-08-30T12:03:40;22.90;58.40
40289;DHT22;28991;52.028;5.526;2023-08-30T12:06:11;22.90;58.30
40289;DHT22;28991;52.028;5.526;2023-08-30T12:08:37;22.90;58.20
40289;DHT22;28991;52.028;5.526;2023-08-30T12:11:03;22.80;58.10
40289;DHT22;28991;52.028;5.526;2023-08-30T12:13:33;22.80;58.30
40289;DHT22;28991;52.028;5.526;2023-08-30T12:15:59;22.80;58.40
40289;DHT22;28991;52.028;5.526;2023-08-30T12:18:32;22.80;58.50
40289;DHT22;28991;52.028;5.526;2023-08-30T12:23:25;22.90;58.40
40289;DHT22;28991;52.028;5.526;2023-08-30T12:26:04;22.90;58.30
40289;DHT22;28991;52.028;5.526;2023-08-30T12:28:32;22.90;58.30
40289;DHT22;28991;52.028;5.526;2023-08-30T12:30:58;22.90;58.20
40289;DHT22;28991;52.028;5.526;2023-08-30T12:33:25;22.90;58.20
40289;DHT22;28991;52.028;5.526;2023-08-30T12:35:51;22.80;58.20
40289;DHT22;28991;52.028;5.526;2023-08-30T12:38:17;22.80;58.20
40289;DHT22;28991;52.028;5.526;2023-08-30T12:40:46;22.80;58.00
40289;DHT22;28991;52.028;5.526;2023-08-30T12:43:13;22.70;57.70
40289;DHT22;28991;52.028;5.526;2023-08-30T12:45:40;22.70;57.60
40289;DHT22;28991;52.028;5.526;2023-08-30T12:48:10;22.70;57.60
40289;DHT22;28991;52.028;5.526;2023-08-30T12:50:37;22.70;57.70
40289;DHT22;28991;52.028;5.526;2023-08-30T12:53:04;22.70;57.80
40289;DHT22;28991;52.028;5.526;2023-08-30T12:55:29;22.80;57.70
40289;DHT22;28991;52.028;5.526;2023-08-30T12:57:55;22.70;57.50
40289;DHT22;28991;52.028;5.526;2023-08-30T13:00:21;22.70;57.30
40289;DHT22;28991;52.028;5.526;2023-08-30T13:02:46;22.70;57.10
40289;DHT22;28991;52.028;5.526;2023-08-30T13:05:12;22.80;56.90
40289;DHT22;28991;52.028;5.526;2023-08-30T13:07:37;22.80;56.60
40289;DHT22;28991;52.028;5.526;2023-08-30T13:10:05;22.70;56.40
40289;DHT22;28991;52.028;5.526;2023-08-30T13:12:31;22.80;55.90
40289;DHT22;28991;52.028;5.526;2023-08-30T13:14:56;22.80;55.70
40289;DHT22;28991;52.028;5.526;2023-08-30T13:17:22;22.80;55.30
40289;DHT22;28991;52.028;5.526;2023-08-30T13:19:48;22.80;55.00
40289;DHT22;28991;52.028;5.526;2023-08-30T13:22:14;22.70;54.90
40289;DHT22;28991;52.028;5.526;2023-08-30T13:24:40;22.80;54.90
40289;DHT22;28991;52.028;5.526;2023-08-30T13:27:05;22.80;54.80
40289;DHT22;28991;52.028;5.526;2023-08-30T13:29:31;22.70;54.40
40289;DHT22;28991;52.028;5.526;2023-08-30T13:31:57;22.70;54.30
40289;DHT22;28991;52.028;5.526;2023-08-30T13:34:23;22.70;54.00
40289;DHT22;28991;52.028;5.526;2023-08-30T13:36:48;22.70;53.70
40289;DHT22;28991;52.028;5.526;2023-08-30T13:39:14;22.80;53.60
40289;DHT22;28991;52.028;5.526;2023-08-30T13:41:40;22.70;53.40
40289;DHT22;28991;52.028;5.526;2023-08-30T13:44:06;22.70;53.30
40289;DHT22;28991;52.028;5.526;2023-08-30T13:46:32;22.70;53.30
40289;DHT22;28991;52.028;5.526;2023-08-30T13:48:58;22.70;52.70
40289;DHT22;28991;52.028;5.526;2023-08-30T13:51:24;22.60;52.90
40289;DHT22;28991;52.028;5.526;2023-08-30T13:53:51;22.60;52.60
40289;DHT22;28991;52.028;5.526;2023-08-30T13:56:16;22.60;52.60
40289;DHT22;28991;52.028;5.526;2023-08-30T13:58:42;22.80;52.60
40289;DHT22;28991;52.028;5.526;2023-08-30T14:01:08;22.60;52.50
40289;DHT22;28991;52.028;5.526;2023-08-30T14:03:33;22.50;52.70
40289;DHT22;28991;52.028;5.526;2023-08-30T14:05:59;22.60;52.90
40289;DHT22;28991;52.028;5.526;2023-08-30T14:08:24;22.70;53.20
40289;DHT22;28991;52.028;5.526;2023-08-30T14:10:50;22.70;53.30
40289;DHT22;28991;52.028;5.526;2023-08-30T14:13:16;22.70;53.00
40289;DHT22;28991;52.028;5.526;2023-08-30T14:15:42;22.70;53.10
40289;DHT22;28991;52.028;5.526;2023-08-30T14:18:08;22.70;53.00
40289;DHT22;28991;52.028;5.526;2023-08-30T14:20:34;22.80;53.10
40289;DHT22;28991;52.028;5.526;2023-08-30T14:22:59;22.80;53.20
40289;DHT22;28991;52.028;5.526;2023-08-30T14:25:25;22.90;53.10
40289;DHT22;28991;52.028;5.526;2023-08-30T14:27:51;22.90;53.10
40289;DHT22;28991;52.028;5.526;2023-08-30T14:30:16;22.90;53.10
40289;DHT22;28991;52.028;5.526;2023-08-30T14:32:42;23.00;53.20
40289;DHT22;28991;52.028;5.526;2023-08-30T14:35:08;23.10;53.30
40289;DHT22;28991;52.028;5.526;2023-08-30T14:37:34;23.10;53.30
40289;DHT22;28991;52.028;5.526;2023-08-30T14:40:03;23.10;53.20
40289;DHT22;28991;52.028;5.526;2023-08-30T14:42:29;23.10;53.20
40289;DHT22;28991;52.028;5.526;2023-08-30T14:44:55;23.20;53.30
40289;DHT22;28991;52.028;5.526;2023-08-30T14:47:21;23.20;53.30
40289;DHT22;28991;52.028;5.526;2023-08-30T14:49:46;23.20;53.30
40289;DHT22;28991;52.028;5.526;2023-08-30T14:52:13;23.20;53.50
40289;DHT22;28991;52.028;5.526;2023-08-30T14:54:39;23.30;53.50
40289;DHT22;28991;52.028;5.526;2023-08-30T14:57:04;23.30;53.60
40289;DHT22;28991;52.028;5.526;2023-08-30T14:59:30;23.30;53.60
40289;DHT22;28991;52.028;5.526;2023-08-30T15:01:55;23.20;53.60
40289;DHT22;28991;52.028;5.526;2023-08-30T15:04:21;23.30;53.70
40289;DHT22;28991;52.028;5.526;2023-08-30T15:06:47;23.30;53.80
40289;DHT22;28991;52.028;5.526;2023-08-30T15:09:12;23.30;53.90
40289;DHT22;28991;52.028;5.526;2023-08-30T15:11:41;23.30;53.80
40289;DHT22;28991;52.028;5.526;2023-08-30T15:14:07;23.30;53.90
40289;DHT22;28991;52.028;5.526;2023-08-30T15:16:32;23.30;53.80
40289;DHT22;28991;52.028;5.526;2023-08-30T15:18:58;23.30;53.90
40289;DHT22;28991;52.028;5.526;2023-08-30T15:21:24;23.30;54.00
40289;DHT22;28991;52.028;5.526;2023-08-30T15:23:49;23.30;54.00
40289;DHT22;28991;52.028;5.526;2023-08-30T15:26:15;23.20;54.00
40289;DHT22;28991;52.028;5.526;2023-08-30T15:28:46;23.20;54.00
40289;DHT22;28991;52.028;5.526;2023-08-30T15:31:13;23.20;54.10